Time;durP1;ratioP1;P1;durP2;ratioP2;P2;SDS_P1;SDS_P2;PMS_P1;PMS_P2;Temp;Humidity;BMP_temperature;BMP_pressure;BME280_temperature;BME280_humidity;BME280_pressure;Samples;Min_cycle;Max_cycle;Signal;HPM_P1;HPM_P2
2021/10/21 00:02:00;;;;;;;2.72;2.20;;;16.00;99.90;;;;;;4985417;28;20190;-77
2021/10/21 00:04:26;;;;;;;3.22;2.22;;;16.00;99.90;;;;;;4986039;28;20192;-78
2021/10/21 00:06:52;;;;;;;2.30;2.10;;;16.00;99.90;;;;;;4987134;28;20250;-77
2021/10/21 00:09:17;;;;;;;4.30;2.45;;;16.10;99.90;;;;;;4987112;28;20188;-77
2021/10/21 00:11:43;;;;;;;2.85;2.10;;;16.00;99.90;;;;;;4986149;28;20671;-78
2021/10/21 00:14:09;;;;;;;2.58;1.83;;;15.90;99.90;;;;;;4986761;28;20204;-77
2021/10/21 00:16:35;;;;;;;3.20;2.30;;;16.00;99.90;;;;;;4984933;28;20243;-78
2021/10/21 00:19:01;;;;;;;2.40;2.00;;;16.20;99.90;;;;;;5001254;28;20208;-78
2021/10/21 00:21:26;;;;;;;2.20;2.00;;;16.20;99.90;;;;;;4985766;28;20204;-77
2021/10/21 00:23:52;;;;;;;2.45;1.98;;;16.10;99.90;;;;;;4986567;28;20280;-76
2021/10/21 00:26:17;;;;;;;2.42;2.22;;;16.10;99.90;;;;;;4986720;28;21116;-77
2021/10/21 00:28:43;;;;;;;3.55;2.40;;;16.00;99.90;;;;;;4987379;28;20188;-78
2021/10/21 00:31:09;;;;;;;3.22;2.15;;;15.90;99.90;;;;;;4986079;28;20237;-78
2021/10/21 00:33:34;;;;;;;2.28;2.03;;;15.90;99.90;;;;;;4986708;28;20188;-77
2021/10/21 00:36:00;;;;;;;2.00;1.90;;;15.90;99.90;;;;;;4985816;28;21135;-78
2021/10/21 00:38:25;;;;;;;5.10;2.15;;;16.00;99.90;;;;;;4985450;28;20177;-77
2021/10/21 00:40:51;;;;;;;2.80;1.75;;;16.10;99.90;;;;;;4985518;28;20697;-77
2021/10/21 00:43:17;;;;;;;2.58;1.85;;;16.10;99.90;;;;;;4986025;28;20796;-76
2021/10/21 00:45:43;;;;;;;2.17;1.67;;;16.00;99.90;;;;;;4985011;28;20235;-77
2021/10/21 00:48:09;;;;;;;2.70;2.50;;;16.00;99.90;;;;;;4985612;28;20259;-77
2021/10/21 00:50:36;;;;;;;2.25;2.05;;;15.90;99.90;;;;;;4985367;28;20689;-76
2021/10/21 00:53:02;;;;;;;2.50;1.95;;;15.80;99.90;;;;;;4985242;28;20958;-78
2021/10/21 00:55:28;;;;;;;2.58;2.38;;;15.80;99.90;;;;;;4985649;28;20184;-76
2021/10/21 00:57:55;;;;;;;2.30;1.65;;;15.70;99.90;;;;;;4985334;28;20172;-77
2021/10/21 01:00:20;;;;;;;1.80;1.70;;;15.70;99.90;;;;;;4985275;28;20188;-77
2021/10/21 01:02:46;;;;;;;2.28;1.90;;;15.80;99.90;;;;;;4983023;28;20194;-77
2021/10/21 01:05:12;;;;;;;4.32;1.85;;;15.70;99.90;;;;;;4985222;28;20281;-78
2021/10/21 01:07:38;;;;;;;2.88;1.90;;;15.70;99.90;;;;;;4985512;28;20200;-77
2021/10/21 01:10:08;;;;;;;2.33;2.08;;;15.70;99.90;;;;;;4985099;28;20191;-77
2021/10/21 01:12:34;;;;;;;3.10;1.92;;;15.70;99.90;;;;;;4985110;28;20191;-77
2021/10/21 01:15:22;;;;;;;2.28;2.08;;;15.70;99.90;;;;;;4984016;28;20208;-78
2021/10/21 01:17:49;;;;;;;2.72;1.55;;;15.70;99.90;;;;;;4985367;28;20181;-78
2021/10/21 01:20:15;;;;;;;3.92;1.88;;;15.80;99.90;;;;;;4985023;28;20693;-77
2021/10/21 01:22:41;;;;;;;2.47;1.75;;;15.70;99.90;;;;;;4984175;28;20267;-76
2021/10/21 01:25:08;;;;;;;2.22;1.70;;;15.80;99.90;;;;;;4983711;28;20188;-78
2021/10/21 01:27:33;;;;;;;2.38;1.80;;;15.70;99.90;;;;;;4985429;28;20242;-77
2021/10/21 01:29:59;;;;;;;2.15;1.80;;;15.60;99.90;;;;;;4985431;28;20614;-77
2021/10/21 01:32:26;;;;;;;1.52;1.40;;;15.60;99.90;;;;;;4985167;28;20197;-77
2021/10/21 01:34:52;;;;;;;1.83;1.40;;;15.60;99.90;;;;;;4983647;28;20191;-78
2021/10/21 01:37:18;;;;;;;2.22;1.70;;;15.60;99.90;;;;;;4985256;28;20319;-77
2021/10/21 01:39:43;;;;;;;1.48;1.38;;;15.60;99.90;;;;;;4985873;28;21016;-77
2021/10/21 01:42:10;;;;;;;1.67;1.50;;;15.60;99.90;;;;;;4985751;28;20199;-77
2021/10/21 01:44:35;;;;;;;1.63;1.50;;;15.60;99.90;;;;;;4986112;28;20180;-77
2021/10/21 01:47:01;;;;;;;2.35;1.40;;;15.60;99.90;;;;;;4984821;28;20617;-77
2021/10/21 01:49:27;;;;;;;2.08;1.55;;;15.60;99.90;;;;;;4985035;28;20200;-77
2021/10/21 01:51:52;;;;;;;1.98;1.60;;;15.70;99.90;;;;;;4984652;28;20307;-76
2021/10/21 01:54:18;;;;;;;1.70;1.60;;;15.70;99.90;;;;;;4984984;28;20179;-78
2021/10/21 01:56:45;;;;;;;1.63;1.48;;;15.70;99.90;;;;;;4985000;28;20203;-76
2021/10/21 01:59:10;;;;;;;1.75;1.55;;;15.80;99.90;;;;;;4984934;28;20653;-76
2021/10/21 02:01:36;;;;;;;1.60;1.42;;;15.80;99.90;;;;;;4984728;28;20247;-76
2021/10/21 02:04:01;;;;;;;1.65;1.45;;;15.90;99.90;;;;;;4985401;28;20206;-77
2021/10/21 02:06:27;;;;;;;1.95;1.30;;;16.00;99.90;;;;;;4985498;28;20226;-77
2021/10/21 02:08:53;;;;;;;1.83;1.40;;;16.10;99.90;;;;;;4985822;28;20584;-76
2021/10/21 02:11:18;;;;;;;1.60;1.42;;;16.20;99.90;;;;;;4985629;28;20212;-77
2021/10/21 02:13:44;;;;;;;1.50;1.40;;;16.20;99.90;;;;;;4985883;28;20204;-76
2021/10/21 02:16:10;;;;;;;1.73;1.63;;;16.10;99.90;;;;;;5000293;28;20210;-76
2021/10/21 02:18:36;;;;;;;2.97;1.50;;;16.20;99.90;;;;;;4986070;28;20184;-77
2021/10/21 02:21:02;;;;;;;1.95;1.65;;;16.30;99.90;;;;;;4985913;28;20195;-76
2021/10/21 02:23:27;;;;;;;2.40;1.33;;;16.30;99.90;;;;;;4985467;28;20567;-77
2021/10/21 02:25:53;;;;;;;2.22;1.20;;;16.30;99.90;;;;;;4985442;28;20205;-76
2021/10/21 02:28:18;;;;;;;3.22;1.40;;;16.30;99.90;;;;;;4984665;28;20184;-75
2021/10/21 02:30:44;;;;;;;1.33;1.23;;;16.40;99.90;;;;;;4985214;28;20207;-75
2021/10/21 02:33:10;;;;;;;1.95;1.35;;;16.40;99.90;;;;;;4985197;28;20180;-77
2021/10/21 02:35:35;;;;;;;1.23;1.00;;;16.40;99.90;;;;;;4985509;28;20189;-76
2021/10/21 02:38:01;;;;;;;1.60;1.30;;;16.50;99.90;;;;;;4984003;28;20179;-77
2021/10/21 02:40:27;;;;;;;1.35;1.20;;;16.50;99.90;;;;;;4985649;28;20715;-77
2021/10/21 02:42:52;;;;;;;1.55;1.20;;;16.50;99.90;;;;;;4984014;28;20694;-77
2021/10/21 02:45:18;;;;;;;1.30;1.20;;;16.50;99.90;;;;;;4985993;28;20246;-77
2021/10/21 02:47:44;;;;;;;1.90;1.30;;;16.50;99.90;;;;;;4984086;28;20238;-76
2021/10/21 02:50:10;;;;;;;1.73;1.30;;;16.40;99.90;;;;;;4985281;28;20904;-76
2021/10/21 02:52:36;;;;;;;1.45;1.20;;;16.20;99.90;;;;;;4984795;28;20180;-76
2021/10/21 02:55:03;;;;;;;1.42;1.30;;;16.10;99.90;;;;;;4984193;28;20180;-76
2021/10/21 02:57:29;;;;;;;1.20;1.10;;;15.90;99.90;;;;;;4983398;28;20204;-76
2021/10/21 02:59:54;;;;;;;1.13;1.02;;;15.90;99.90;;;;;;4985141;28;20724;-76
2021/10/21 03:02:20;;;;;;;1.40;1.30;;;15.80;99.90;;;;;;4985015;28;20188;-76
2021/10/21 03:04:46;;;;;;;1.45;0.90;;;15.70;99.90;;;;;;4986552;28;20184;-76
2021/10/21 03:07:12;;;;;;;1.10;1.00;;;15.70;99.90;;;;;;4986149;28;20273;-76
2021/10/21 03:09:37;;;;;;;1.48;1.10;;;15.60;99.90;;;;;;4986268;28;20704;-76
2021/10/21 03:12:03;;;;;;;0.88;0.82;;;15.50;99.90;;;;;;4987163;28;20270;-76
2021/10/21 03:14:28;;;;;;;1.20;1.10;;;15.40;99.90;;;;;;4987842;28;20195;-76
2021/10/21 03:16:54;;;;;;;1.42;0.98;;;15.40;99.90;;;;;;4987706;28;20207;-76
2021/10/21 03:19:20;;;;;;;1.20;1.10;;;15.30;99.90;;;;;;4987837;28;20180;-76
2021/10/21 03:21:45;;;;;;;1.50;1.08;;;15.20;99.90;;;;;;4987148;28;20215;-77
2021/10/21 03:24:11;;;;;;;2.05;1.20;;;15.20;99.90;;;;;;4987441;28;20219;-76
2021/10/21 03:26:36;;;;;;;1.17;1.00;;;15.10;99.90;;;;;;4987436;28;20279;-76
2021/10/21 03:29:02;;;;;;;1.65;1.10;;;15.10;99.90;;;;;;4986724;28;20279;-76
2021/10/21 03:31:29;;;;;;;0.90;0.90;;;15.20;99.90;;;;;;4987427;28;20211;-77
2021/10/21 03:33:55;;;;;;;0.80;0.80;;;15.20;99.90;;;;;;4986363;28;20188;-77
2021/10/21 03:36:22;;;;;;;0.85;0.85;;;15.30;99.90;;;;;;4986859;28;20196;-77
2021/10/21 03:38:47;;;;;;;1.48;0.90;;;15.40;99.90;;;;;;4988042;28;20184;-77
2021/10/21 03:41:13;;;;;;;1.77;0.80;;;15.40;99.90;;;;;;4986937;28;20188;-76
2021/10/21 03:43:39;;;;;;;0.90;0.60;;;15.40;99.90;;;;;;4987984;28;20180;-77
2021/10/21 03:46:04;;;;;;;1.42;0.80;;;15.30;99.90;;;;;;4987786;28;20282;-77
2021/10/21 03:48:30;;;;;;;0.98;0.70;;;15.40;99.90;;;;;;4988071;28;20227;-77
2021/10/21 03:50:55;;;;;;;0.90;0.90;;;15.50;99.90;;;;;;4988003;28;20699;-76
2021/10/21 03:53:21;;;;;;;0.70;0.60;;;15.50;99.90;;;;;;4987891;28;20218;-76
2021/10/21 03:55:46;;;;;;;1.35;0.68;;;15.70;99.90;;;;;;4986716;28;20202;-77
2021/10/21 03:58:12;;;;;;;1.05;0.73;;;15.70;99.90;;;;;;4987568;28;20729;-76
2021/10/21 04:00:38;;;;;;;0.77;0.63;;;15.70;99.90;;;;;;4987881;28;20191;-76
2021/10/21 04:03:04;;;;;;;1.92;0.50;;;15.70;99.90;;;;;;4987227;28;20602;-77
2021/10/21 04:05:29;;;;;;;3.65;0.70;;;15.70;99.90;;;;;;4988046;28;20188;-77
2021/10/21 04:07:55;;;;;;;0.85;0.70;;;15.80;99.90;;;;;;4987867;28;20682;-77
2021/10/21 04:10:21;;;;;;;0.95;0.55;;;15.80;99.90;;;;;;4987595;28;20729;-78
2021/10/21 04:12:46;;;;;;;0.60;0.50;;;15.80;99.90;;;;;;4985906;28;20263;-77
2021/10/21 04:15:12;;;;;;;0.82;0.60;;;15.70;99.90;;;;;;4987821;28;20238;-77
2021/10/21 04:17:38;;;;;;;0.80;0.70;;;15.80;99.90;;;;;;4988141;28;20624;-77
2021/10/21 04:20:05;;;;;;;0.85;0.60;;;15.70;99.90;;;;;;4986068;28;20186;-77
2021/10/21 04:22:31;;;;;;;0.50;0.50;;;15.70;99.90;;;;;;4986928;28;20199;-78
2021/10/21 04:24:57;;;;;;;4.75;0.73;;;15.70;99.90;;;;;;4989824;28;20192;-80
2021/10/21 04:27:22;;;;;;;2.83;0.60;;;15.80;99.90;;;;;;4988411;28;20200;-79
2021/10/21 04:29:48;;;;;;;0.50;0.50;;;15.80;99.90;;;;;;4991964;28;20181;-80
2021/10/21 04:32:14;;;;;;;0.70;0.70;;;15.80;99.90;;;;;;4992972;28;21164;-80
2021/10/21 04:34:40;;;;;;;2.88;0.60;;;15.70;99.90;;;;;;4990298;28;20180;-76
2021/10/21 04:37:05;;;;;;;0.60;0.60;;;15.70;99.90;;;;;;4989255;28;20223;-78
2021/10/21 04:39:31;;;;;;;0.70;0.60;;;15.60;99.90;;;;;;4988284;28;20184;-78
2021/10/21 04:41:57;;;;;;;0.60;0.45;;;15.50;99.90;;;;;;4987763;28;21273;-76
2021/10/21 04:44:22;;;;;;;0.50;0.50;;;15.50;99.90;;;;;;4987339;28;21273;-76
2021/10/21 04:46:48;;;;;;;0.40;0.40;;;15.40;99.90;;;;;;4987167;28;20331;-78
2021/10/21 04:49:14;;;;;;;4.68;0.50;;;15.40;99.90;;;;;;4987560;28;20180;-76
2021/10/21 04:51:39;;;;;;;0.73;0.40;;;15.40;99.90;;;;;;4987407;28;20244;-77
2021/10/21 04:54:05;;;;;;;2.03;0.60;;;15.40;99.90;;;;;;4987493;28;20678;-77
2021/10/21 04:56:31;;;;;;;1.23;0.63;;;15.30;99.90;;;;;;4987530;28;20220;-76
2021/10/21 04:58:56;;;;;;;1.17;0.47;;;15.10;99.90;;;;;;4986779;28;20595;-76
2021/10/21 05:01:22;;;;;;;0.40;0.40;;;15.20;99.90;;;;;;4987637;28;20263;-76
2021/10/21 05:03:49;;;;;;;0.93;0.50;;;15.20;99.90;;;;;;4985244;28;20593;-76
2021/10/21 05:06:15;;;;;;;5.25;0.70;;;15.10;99.90;;;;;;4985660;28;20251;-78
2021/10/21 05:08:41;;;;;;;0.68;0.50;;;15.00;99.90;;;;;;4986692;28;20185;-76
2021/10/21 05:11:06;;;;;;;2.35;0.73;;;14.90;99.90;;;;;;4987120;28;20619;-76
2021/10/21 05:13:32;;;;;;;0.63;0.45;;;14.90;99.90;;;;;;4985131;28;20195;-76
2021/10/21 05:15:58;;;;;;;0.93;0.43;;;14.90;99.90;;;;;;4985419;28;20204;-77
2021/10/21 05:18:23;;;;;;;1.38;0.55;;;14.80;99.90;;;;;;4986598;28;20232;-76
2021/10/21 05:20:49;;;;;;;1.52;0.45;;;14.80;99.90;;;;;;4985276;28;20180;-77
2021/10/21 05:23:15;;;;;;;0.52;0.40;;;14.80;99.90;;;;;;4986550;28;20192;-76
2021/10/21 05:25:41;;;;;;;1.20;0.50;;;14.70;99.90;;;;;;4986337;28;20195;-75
2021/10/21 05:28:06;;;;;;;0.65;0.55;;;14.60;99.90;;;;;;4985940;28;20184;-76
2021/10/21 05:30:32;;;;;;;1.42;0.50;;;14.60;99.90;;;;;;4986202;28;20204;-75
2021/10/21 05:32:57;;;;;;;1.00;0.50;;;14.40;99.90;;;;;;4985709;28;20615;-76
2021/10/21 05:35:23;;;;;;;0.75;0.40;;;14.30;99.90;;;;;;4984983;28;20200;-76
2021/10/21 05:37:49;;;;;;;1.02;0.30;;;14.10;99.90;;;;;;4985913;28;20200;-76
2021/10/21 05:40:14;;;;;;;0.85;0.40;;;13.80;99.90;;;;;;4986445;28;21187;-76
2021/10/21 05:42:40;;;;;;;1.77;0.60;;;13.60;99.90;;;;;;4987232;28;20188;-77
2021/10/21 05:45:06;;;;;;;1.38;0.40;;;13.60;99.90;;;;;;4985851;28;20203;-78
2021/10/21 05:47:34;;;;;;;1.45;0.30;;;13.60;99.90;;;;;;4985647;28;20710;-78
2021/10/21 05:50:00;;;;;;;1.05;0.38;;;13.70;99.90;;;;;;4985715;28;20326;-78
2021/10/21 05:52:25;;;;;;;0.40;0.40;;;13.70;99.90;;;;;;4987686;28;21351;-78
2021/10/21 05:54:54;;;;;;;1.08;0.77;;;13.60;99.90;;;;;;4987624;28;20191;-78
2021/10/21 05:57:20;;;;;;;0.40;0.30;;;13.70;99.90;;;;;;4987574;28;20204;-78
2021/10/21 05:59:46;;;;;;;0.50;0.30;;;13.70;99.90;;;;;;4986506;28;20716;-78
2021/10/21 06:02:11;;;;;;;2.60;0.35;;;13.70;99.90;;;;;;4987220;28;20184;-77
2021/10/21 06:04:37;;;;;;;1.23;0.35;;;13.70;99.90;;;;;;4987309;28;20192;-78
2021/10/21 06:07:03;;;;;;;0.65;0.40;;;13.70;99.90;;;;;;4985487;28;20208;-78
2021/10/21 06:09:28;;;;;;;3.17;0.52;;;13.70;99.90;;;;;;4987317;28;20188;-80
2021/10/21 06:11:54;;;;;;;0.95;0.47;;;13.60;99.90;;;;;;4994610;28;20196;-80
2021/10/21 06:14:19;;;;;;;0.75;0.40;;;13.70;99.90;;;;;;4994400;28;20717;-78
2021/10/21 06:16:48;;;;;;;3.10;0.30;;;13.70;99.90;;;;;;4994512;28;20199;-80
2021/10/21 06:19:14;;;;;;;1.20;0.30;;;13.60;99.90;;;;;;4992516;28;20187;-80
2021/10/21 06:21:40;;;;;;;4.07;0.60;;;13.70;99.90;;;;;;4992776;28;20263;-80
2021/10/21 06:24:06;;;;;;;0.40;0.40;;;13.70;99.90;;;;;;4992072;28;20200;-80
2021/10/21 06:26:32;;;;;;;2.22;0.40;;;13.60;99.90;;;;;;4993417;28;20720;-80
2021/10/21 06:28:58;;;;;;;1.67;0.73;;;13.70;99.90;;;;;;4993718;28;20176;-80
2021/10/21 06:31:24;;;;;;;1.30;0.40;;;13.70;99.90;;;;;;4992944;28;20316;-78
2021/10/21 06:33:49;;;;;;;0.47;0.40;;;13.70;99.90;;;;;;4992847;28;20185;-79
2021/10/21 06:36:15;;;;;;;1.20;0.40;;;13.80;99.90;;;;;;4993562;28;20259;-79
2021/10/21 06:38:43;;;;;;;1.05;0.40;;;14.00;99.90;;;;;;4996893;28;20180;-79
2021/10/21 06:41:08;;;;;;;1.20;0.40;;;14.00;99.90;;;;;;4995182;28;20191;-78
2021/10/21 06:43:34;;;;;;;1.17;0.45;;;14.00;99.90;;;;;;4994807;28;20191;-79
2021/10/21 06:46:02;;;;;;;2.13;0.40;;;14.00;99.90;;;;;;4992009;28;20220;-79
2021/10/21 06:48:28;;;;;;;0.68;0.40;;;14.00;99.90;;;;;;4994307;28;20191;-80
2021/10/21 06:50:54;;;;;;;2.53;0.40;;;14.00;99.90;;;;;;4993053;28;20206;-78
2021/10/21 06:53:20;;;;;;;4.45;0.60;;;13.90;99.90;;;;;;4992163;28;20177;-79
2021/10/21 06:55:45;;;;;;;1.80;0.60;;;13.80;99.90;;;;;;4990850;28;20196;-79
2021/10/21 06:58:11;;;;;;;1.33;0.40;;;13.80;99.90;;;;;;4990182;28;20195;-80
2021/10/21 07:00:39;;;;;;;0.68;0.40;;;13.80;99.90;;;;;;4991003;28;20212;-78
2021/10/21 07:03:05;;;;;;;1.52;0.32;;;13.80;99.90;;;;;;4989757;28;20653;-79
2021/10/21 07:05:38;;;;;;;0.70;0.40;;;13.70;99.90;;;;;;4990906;28;20267;-79
2021/10/21 07:08:04;;;;;;;3.45;0.60;;;13.70;99.90;;;;;;4991116;28;20630;-79
2021/10/21 07:10:29;;;;;;;0.93;0.50;;;13.70;99.90;;;;;;4990735;28;20294;-80
2021/10/21 07:12:55;;;;;;;2.28;0.30;;;13.70;99.90;;;;;;4989220;28;20219;-77
2021/10/21 07:15:20;;;;;;;1.55;0.38;;;13.70;99.90;;;;;;4990383;28;20797;-78
2021/10/21 07:17:46;;;;;;;1.80;0.40;;;13.80;99.90;;;;;;4988477;28;20291;-77
2021/10/21 07:20:15;;;;;;;0.95;0.40;;;13.70;99.90;;;;;;4988596;28;20212;-77
2021/10/21 07:22:42;;;;;;;1.95;0.40;;;13.70;99.90;;;;;;4987551;28;20669;-78
2021/10/21 07:25:08;;;;;;;2.75;0.95;;;13.80;99.90;;;;;;4987836;28;20923;-78
2021/10/21 07:27:33;;;;;;;2.20;0.43;;;13.80;99.90;;;;;;4988655;28;20211;-79
2021/10/21 07:29:59;;;;;;;5.35;1.38;;;13.70;99.90;;;;;;4988065;28;20262;-79
2021/10/21 07:32:25;;;;;;;1.30;0.43;;;13.60;99.90;;;;;;4990673;28;21378;-79
2021/10/21 07:34:51;;;;;;;0.98;0.40;;;13.50;99.90;;;;;;4983609;28;20249;-78
2021/10/21 07:37:17;;;;;;;1.85;0.40;;;13.60;99.90;;;;;;4990597;28;20632;-79
2021/10/21 07:39:43;;;;;;;1.30;0.47;;;13.70;99.90;;;;;;4988061;28;20184;-79
2021/10/21 07:42:11;;;;;;;2.00;0.43;;;13.70;99.90;;;;;;4989313;28;20271;-78
2021/10/21 07:44:41;;;;;;;2.67;0.40;;;13.90;99.90;;;;;;5004842;28;20181;-79
2021/10/21 07:47:07;;;;;;;1.10;0.50;;;14.10;99.90;;;;;;4989630;28;20208;-79
2021/10/21 07:49:32;;;;;;;3.00;0.90;;;14.20;99.90;;;;;;4989917;28;20634;-78
2021/10/21 07:52:01;;;;;;;0.85;0.40;;;14.30;99.90;;;;;;4988498;28;20231;-79
2021/10/21 07:54:29;;;;;;;6.68;0.40;;;14.40;99.90;;;;;;4988781;28;20188;-79
2021/10/21 07:56:59;;;;;;;0.88;0.28;;;14.40;99.90;;;;;;4989194;28;20688;-79
2021/10/21 07:59:26;;;;;;;3.40;0.70;;;14.40;99.90;;;;;;4988725;28;20271;-79
2021/10/21 08:01:53;;;;;;;1.17;0.30;;;14.50;99.90;;;;;;4988197;28;20176;-79
2021/10/21 08:04:18;;;;;;;1.92;0.30;;;14.60;99.90;;;;;;4988116;28;20263;-79
2021/10/21 08:06:44;;;;;;;1.65;0.40;;;14.70;99.90;;;;;;4987599;28;20347;-79
2021/10/21 08:09:11;;;;;;;1.10;0.35;;;14.80;99.90;;;;;;4988807;28;20172;-79
2021/10/21 08:11:38;;;;;;;1.33;0.20;;;15.00;99.90;;;;;;4988797;28;20231;-80
2021/10/21 08:14:05;;;;;;;1.33;0.47;;;14.90;99.90;;;;;;5004042;28;20195;-77
2021/10/21 08:16:31;;;;;;;1.00;0.30;;;14.90;99.90;;;;;;4988892;28;20208;-76
2021/10/21 08:18:58;;;;;;;1.17;0.47;;;14.90;99.90;;;;;;4989521;28;20647;-77
2021/10/21 08:21:23;;;;;;;1.20;0.57;;;14.90;99.90;;;;;;4988539;28;20196;-76
2021/10/21 08:23:53;;;;;;;0.30;0.22;;;14.80;99.90;;;;;;4986592;28;20180;-76
2021/10/21 08:26:20;;;;;;;1.35;0.30;;;14.80;99.90;;;;;;4988791;28;20234;-77
2021/10/21 08:28:47;;;;;;;0.20;0.20;;;14.60;99.90;;;;;;4987403;28;20189;-76
2021/10/21 08:31:14;;;;;;;2.53;0.20;;;14.50;99.90;;;;;;4987098;28;20742;-77
2021/10/21 08:33:39;;;;;;;1.23;0.20;;;14.30;99.90;;;;;;5001061;28;20188;-78
2021/10/21 08:36:08;;;;;;;1.95;0.30;;;14.10;99.90;;;;;;4986218;28;20221;-77
2021/10/21 08:38:34;;;;;;;0.63;0.30;;;13.90;99.90;;;;;;4985975;28;20254;-76
2021/10/21 08:41:00;;;;;;;0.13;0.13;;;13.80;99.90;;;;;;4985515;28;20184;-75
2021/10/21 08:43:26;;;;;;;0.25;0.22;;;13.90;99.90;;;;;;4988758;28;20203;-77
2021/10/21 08:45:51;;;;;;;2.50;0.28;;;13.80;99.90;;;;;;4984418;28;20220;-75
2021/10/21 08:48:17;;;;;;;2.05;0.20;;;13.70;99.90;;;;;;4985872;28;20270;-76
2021/10/21 08:50:45;;;;;;;0.20;0.20;;;13.60;99.90;;;;;;4984793;28;20208;-77
2021/10/21 08:53:11;;;;;;;1.45;0.38;;;13.60;99.90;;;;;;4984886;28;20203;-77
2021/10/21 08:55:37;;;;;;;0.50;0.30;;;13.60;99.90;;;;;;4984630;28;20339;-78
2021/10/21 08:58:04;;;;;;;0.80;0.30;;;13.70;99.90;;;;;;4975548;28;20184;-77
2021/10/21 09:00:32;;;;;;;1.30;0.20;;;13.60;99.90;;;;;;4999267;28;20254;-77
2021/10/21 09:03:01;;;;;;;1.42;0.20;;;13.40;99.90;;;;;;4984963;28;20188;-77
2021/10/21 09:08:25;;;;;;;1.10;0.57;;;13.10;99.90;;;;;;4984323;28;20553;-77
2021/10/21 09:10:53;;;;;;;1.38;0.38;;;12.30;99.90;;;;;;4975299;28;20235;-77
2021/10/21 09:13:30;;;;;;;0.50;0.30;;;11.50;99.90;;;;;;4982911;28;20643;-74
2021/10/21 09:15:59;;;;;;;1.33;0.50;;;11.10;99.90;;;;;;4983080;28;20686;-77
2021/10/21 09:18:41;;;;;;;0.68;0.38;;;11.00;99.90;;;;;;4982978;28;20180;-76
2021/10/21 09:21:07;;;;;;;1.33;0.40;;;10.90;99.90;;;;;;4984584;28;20275;-76
2021/10/21 09:23:32;;;;;;;0.53;0.40;;;10.80;99.90;;;;;;4984112;28;20267;-77
2021/10/21 09:26:09;;;;;;;0.63;0.20;;;10.80;99.90;;;;;;4984357;28;20212;-77
2021/10/21 09:28:35;;;;;;;2.77;0.50;;;10.90;99.90;;;;;;4984696;28;20188;-77
2021/10/21 09:31:05;;;;;;;1.70;0.40;;;11.00;99.90;;;;;;4984185;28;20737;-75
2021/10/21 09:33:49;;;;;;;0.87;0.20;;;11.20;99.90;;;;;;4984351;28;20216;-77
2021/10/21 09:36:20;;;;;;;0.33;0.20;;;11.30;99.90;;;;;;4984597;28;20666;-76
2021/10/21 09:38:54;;;;;;;0.50;0.20;;;11.20;99.90;;;;;;4984104;28;20172;-76
2021/10/21 09:41:28;;;;;;;0.33;0.20;;;11.10;99.90;;;;;;4984218;28;20180;-77
2021/10/21 09:43:56;;;;;;;1.27;0.50;;;11.10;99.90;;;;;;4985393;28;20587;-75
2021/10/21 09:46:30;;;;;;;0.93;0.40;;;10.90;99.90;;;;;;4984511;28;20270;-76
2021/10/21 09:49:14;;;;;;;0.60;0.50;;;11.00;99.90;;;;;;4985504;28;20183;-76
2021/10/21 09:51:40;;;;;;;0.53;0.50;;;11.00;99.90;;;;;;4985366;28;20673;-76
2021/10/21 09:54:06;;;;;;;0.77;0.50;;;10.90;99.90;;;;;;4985795;28;20180;-76
2021/10/21 09:57:00;;;;;;;1.37;0.60;;;10.80;99.90;;;;;;4985692;28;20200;-76
2021/10/21 09:59:30;;;;;;;2.70;0.80;;;10.60;99.90;;;;;;4985164;28;20195;-76
2021/10/21 10:02:33;;;;;;;0.50;0.50;;;10.50;99.90;;;;;;5000123;28;20203;-77
2021/10/21 10:05:02;;;;;;;0.90;0.70;;;10.50;99.90;;;;;;4967892;28;20305;-76
2021/10/21 10:07:29;;;;;;;0.87;0.50;;;10.40;99.90;;;;;;4999176;28;20693;-77
2021/10/21 10:10:01;;;;;;;1.17;0.70;;;10.50;99.90;;;;;;4983740;28;21197;-73
2021/10/21 10:12:32;;;;;;;2.80;1.30;;;10.60;99.90;;;;;;4987943;28;20208;-74
2021/10/21 10:14:58;;;;;;;2.03;1.00;;;10.70;99.90;;;;;;4986319;28;20275;-77
2021/10/21 10:17:26;;;;;;;2.13;1.07;;;10.80;99.90;;;;;;5002538;28;20636;-74
2021/10/21 10:19:52;;;;;;;1.00;0.60;;;11.00;99.90;;;;;;4988406;28;20172;-76
2021/10/21 10:22:25;;;;;;;2.60;0.50;;;11.20;99.90;;;;;;4989032;28;20188;-76
2021/10/21 10:24:53;;;;;;;2.00;0.70;;;11.30;99.90;;;;;;4989588;28;20654;-76
2021/10/21 10:27:30;;;;;;;1.03;0.50;;;11.30;99.90;;;;;;4988833;28;20200;-76
2021/10/21 10:30:00;;;;;;;0.87;0.43;;;11.40;99.90;;;;;;4987207;28;20966;-76
2021/10/21 10:32:29;;;;;;;0.30;0.30;;;11.50;99.90;;;;;;4985330;28;20557;-76
2021/10/21 10:34:54;;;;;;;0.77;0.30;;;11.60;99.90;;;;;;4986803;28;20181;-77
2021/10/21 10:37:20;;;;;;;0.93;0.40;;;11.40;99.90;;;;;;4987218;28;20210;-76
2021/10/21 10:40:00;;;;;;;1.13;0.30;;;11.30;99.90;;;;;;4986711;28;20176;-76
2021/10/21 10:42:29;;;;;;;1.37;0.40;;;11.20;99.90;;;;;;4986826;28;20919;-76
2021/10/21 10:44:55;;;;;;;0.97;0.40;;;11.20;99.90;;;;;;4986137;28;20271;-75
2021/10/21 10:47:39;;;;;;;0.53;0.33;;;11.20;99.90;;;;;;4985996;28;20303;-76
2021/10/21 10:50:07;;;;;;;1.23;0.40;;;11.20;99.90;;;;;;4986141;28;20192;-77
2021/10/21 10:52:52;;;;;;;0.63;0.63;;;11.30;99.90;;;;;;4985919;28;20212;-77
2021/10/21 10:55:20;;;;;;;1.43;0.60;;;11.30;99.90;;;;;;4986756;28;20475;-76
2021/10/21 10:57:47;;;;;;;1.03;0.30;;;11.30;99.90;;;;;;4986442;28;20192;-75
2021/10/21 11:00:40;;;;;;;0.67;0.43;;;11.40;99.90;;;;;;4988331;28;20940;-76
2021/10/21 11:03:07;;;;;;;0.57;0.40;;;11.70;99.90;;;;;;4971625;28;20287;-75
2021/10/21 11:05:44;;;;;;;0.60;0.47;;;12.00;99.90;;;;;;4986890;28;20988;-76
2021/10/21 11:08:14;;;;;;;1.90;0.55;;;12.00;99.90;;;;;;4987362;28;20180;-76
2021/10/21 11:10:45;;;;;;;0.50;0.33;;;12.00;99.90;;;;;;4986435;28;20266;-76
2021/10/21 11:13:40;;;;;;;2.45;0.60;;;12.00;99.90;;;;;;4986611;28;20836;-77
2021/10/21 11:16:35;;;;;;;3.10;1.17;;;12.20;99.90;;;;;;4977060;28;20247;-76
2021/10/21 11:19:02;;;;;;;0.83;0.63;;;12.40;99.90;;;;;;4984829;28;20168;-77
2021/10/21 11:21:54;;;;;;;1.27;0.60;;;12.70;99.90;;;;;;4985894;28;20188;-78
2021/10/21 11:24:49;;;;;;;1.10;0.60;;;12.80;99.90;;;;;;4981955;28;20199;-76
2021/10/21 11:27:16;;;;;;;2.50;0.80;;;12.60;99.90;;;;;;4987986;28;20200;-77
2021/10/21 11:29:43;;;;;;;2.58;0.80;;;12.50;99.90;;;;;;4988397;28;20326;-76
2021/10/21 11:32:10;;;;;;;2.17;0.70;;;12.30;99.90;;;;;;4987726;28;20682;-77
2021/10/21 11:34:36;;;;;;;4.57;0.95;;;12.30;99.90;;;;;;4988414;28;20183;-76
2021/10/21 11:37:03;;;;;;;1.15;0.70;;;12.20;99.90;;;;;;4988289;28;20200;-76
2021/10/21 11:39:33;;;;;;;2.97;0.77;;;12.30;99.90;;;;;;4988595;28;20180;-77
2021/10/21 11:42:02;;;;;;;3.25;1.27;;;12.20;99.90;;;;;;4987585;28;20180;-76
2021/10/21 11:44:28;;;;;;;1.30;0.70;;;12.10;99.90;;;;;;4988496;28;20997;-77
2021/10/21 11:47:02;;;;;;;2.55;0.90;;;12.20;99.90;;;;;;4988029;28;20211;-77
2021/10/21 11:49:29;;;;;;;2.50;1.00;;;12.20;99.90;;;;;;4988540;28;20188;-77
2021/10/21 11:52:09;;;;;;;1.15;0.90;;;12.40;99.90;;;;;;4988087;28;20197;-76
2021/10/21 11:54:36;;;;;;;3.03;0.88;;;12.50;99.90;;;;;;4988147;28;20179;-77
2021/10/21 11:57:03;;;;;;;2.70;1.05;;;12.60;99.90;;;;;;4987954;28;20222;-77
2021/10/21 11:59:40;;;;;;;3.15;1.10;;;12.50;99.90;;;;;;4987574;28;20219;-76
2021/10/21 12:02:30;;;;;;;2.03;1.00;;;12.40;99.90;;;;;;4986038;28;20180;-76
2021/10/21 12:04:57;;;;;;;1.25;0.88;;;12.40;99.90;;;;;;4984391;28;20571;-76
2021/10/21 12:07:23;;;;;;;5.78;2.17;;;12.40;99.90;;;;;;4987922;28;20211;-76
2021/10/21 12:09:50;;;;;;;4.15;1.13;;;12.50;99.90;;;;;;4987773;28;20539;-77
2021/10/21 12:12:16;;;;;;;2.95;1.17;;;12.60;99.90;;;;;;4985422;28;20212;-77
2021/10/21 12:14:43;;;;;;;3.80;1.20;;;12.70;99.90;;;;;;4987687;28;20242;-77
2021/10/21 12:17:10;;;;;;;2.53;1.40;;;12.70;99.90;;;;;;4986422;28;20204;-77
2021/10/21 12:19:38;;;;;;;3.25;1.05;;;12.70;99.90;;;;;;4986953;28;20189;-75
2021/10/21 12:22:15;;;;;;;1.05;0.70;;;12.90;99.90;;;;;;4987877;28;20184;-78
2021/10/21 12:24:42;;;;;;;2.00;1.27;;;13.00;99.90;;;;;;4987643;28;20267;-78
2021/10/21 12:27:09;;;;;;;2.95;1.30;;;13.10;99.90;;;;;;4986542;28;20216;-78
2021/10/21 12:29:42;;;;;;;2.55;1.35;;;13.00;99.90;;;;;;4985715;28;20191;-78
2021/10/21 12:32:10;;;;;;;3.00;0.88;;;12.80;99.90;;;;;;4984206;28;20204;-77
2021/10/21 12:34:36;;;;;;;3.55;1.10;;;12.60;99.90;;;;;;4983923;28;20184;-74
2021/10/21 12:37:07;;;;;;;2.55;1.10;;;12.50;99.90;;;;;;4985662;28;20204;-74
2021/10/21 12:39:34;;;;;;;3.85;1.02;;;12.40;99.90;;;;;;4986367;28;20176;-75
2021/10/21 12:42:01;;;;;;;2.75;1.77;;;12.30;99.90;;;;;;4986346;28;20278;-74
2021/10/21 12:44:33;;;;;;;2.25;1.23;;;11.90;99.90;;;;;;4988477;28;20192;-76
2021/10/21 12:47:19;;;;;;;1.87;1.33;;;11.60;99.90;;;;;;4983527;28;20211;-76
2021/10/21 12:49:56;;;;;;;5.03;1.43;;;11.70;99.90;;;;;;4998537;28;20681;-76
2021/10/21 12:52:30;;;;;;;3.27;1.93;;;11.70;99.90;;;;;;4983552;28;20208;-77
2021/10/21 12:55:18;;;;;;;2.73;1.27;;;11.60;99.90;;;;;;4984505;28;20216;-76